Accueil
METAR-TAF:

METAR-TAF

Aéroports :

Altenstadt, Allemagne

latitude: 47-50N, longitude: 010-52E, altitude: 739 m

Observation

Le bulletin a été fait il y a 47 minutes, à 14:20 UTC
Vent 5 kt de est
Température 6°C
Humidité 70%
Pression 1021 hPa
Visibilité 10 km ou plus
Quelques nuages à une hauteur de 24000 ft

METAR: ETHA 261420Z 08005KT 9999 FEW240 06/01 Q1021 BLU+FCST CNL

Heure: 16:07 (15:07 UTC)

Prévision

Le bulletin a été fait il y a 3 heures et 57 minutes, à 11:10 UTC
Prévision valable du 26 à 12 UTC au 26 à 21 UTC
Vent 3 kt de direction variable
Visibilité 10 km ou plus
Quelques nuages à une hauteur de 24000 ft
Probabilité 30%
du 26 à 18 UTC au 26 à 21 UTC
Vent 1 kt de direction variable
Visibilité: 0400 m
Nuages fragmentés à une hauteur de 100 ft
brouillard givrant

TAF: ETHA 261110Z 2612/2621 VRB03KT 9999 NSW FEW240 PROB30 2618/2621 VRB01KT 0400 FZFG BKN001

Observations et prévisions météorologiques de plus de 4000 aéroports (messages METAR et TAF).

Les stations disponibles sont représentées par des disques jaunes et rouges sur la carte.

Passer la souris dessus pour voir le nom de la station.

Cliquer dessus pour voir les observations et prévisions météorologiques.

Pour changer de carte: cliquez sur les boutons verts avec une croix noire pour zoomer, sur le bouton vert avec un tiret pour effectuer un zoom arrière, ou sur les flèches vertes pour les cartes adjacentes.


METAR-TAF: